sensor_id;sensor_type;location;lat;lon;timestamp;P1;durP1;ratioP1;P2;durP2;ratioP2
76423;SDS011;65257;52.104;4.268;2023-08-30T00:01:39;5.97;;;3.65;;
76423;SDS011;65257;52.104;4.268;2023-08-30T00:04:05;7.85;;;4.35;;
76423;SDS011;65257;52.104;4.268;2023-08-30T00:06:31;7.40;;;3.95;;
76423;SDS011;65257;52.104;4.268;2023-08-30T00:09:00;7.57;;;3.67;;
76423;SDS011;65257;52.104;4.268;2023-08-30T00:11:25;6.80;;;3.40;;
76423;SDS011;65257;52.104;4.268;2023-08-30T00:13:50;7.00;;;3.70;;
76423;SDS011;65257;52.104;4.268;2023-08-30T00:16:16;7.15;;;3.65;;
76423;SDS011;65257;52.104;4.268;2023-08-30T00:18:42;7.60;;;4.13;;
76423;SDS011;65257;52.104;4.268;2023-08-30T00:21:09;6.85;;;3.40;;
76423;SDS011;65257;52.104;4.268;2023-08-30T00:23:35;7.93;;;3.45;;
76423;SDS011;65257;52.104;4.268;2023-08-30T00:26:03;7.78;;;3.35;;
76423;SDS011;65257;52.104;4.268;2023-08-30T00:28:28;7.95;;;3.72;;
76423;SDS011;65257;52.104;4.268;2023-08-30T00:30:54;9.10;;;4.65;;
76423;SDS011;65257;52.104;4.268;2023-08-30T00:33:22;7.47;;;4.25;;
76423;SDS011;65257;52.104;4.268;2023-08-30T00:35:54;8.65;;;4.00;;
76423;SDS011;65257;52.104;4.268;2023-08-30T00:38:26;7.97;;;4.07;;
76423;SDS011;65257;52.104;4.268;2023-08-30T00:40:53;7.70;;;3.80;;
76423;SDS011;65257;52.104;4.268;2023-08-30T00:43:21;9.20;;;3.90;;
76423;SDS011;65257;52.104;4.268;2023-08-30T00:45:47;8.68;;;4.43;;
76423;SDS011;65257;52.104;4.268;2023-08-30T00:48:14;8.35;;;3.92;;
76423;SDS011;65257;52.104;4.268;2023-08-30T00:50:43;8.95;;;3.63;;
76423;SDS011;65257;52.104;4.268;2023-08-30T00:53:09;7.80;;;3.58;;
76423;SDS011;65257;52.104;4.268;2023-08-30T00:55:35;8.48;;;3.85;;
76423;SDS011;65257;52.104;4.268;2023-08-30T00:58:04;8.30;;;3.92;;
76423;SDS011;65257;52.104;4.268;2023-08-30T01:00:30;8.45;;;4.18;;
76423;SDS011;65257;52.104;4.268;2023-08-30T01:02:56;7.45;;;3.90;;
76423;SDS011;65257;52.104;4.268;2023-08-30T01:05:25;7.97;;;3.95;;
76423;SDS011;65257;52.104;4.268;2023-08-30T01:07:51;9.35;;;3.83;;
76423;SDS011;65257;52.104;4.268;2023-08-30T01:10:17;6.72;;;3.85;;
76423;SDS011;65257;52.104;4.268;2023-08-30T01:12:49;10.40;;;4.32;;
76423;SDS011;65257;52.104;4.268;2023-08-30T01:15:41;6.50;;;3.40;;
76423;SDS011;65257;52.104;4.268;2023-08-30T01:18:11;8.35;;;3.63;;
76423;SDS011;65257;52.104;4.268;2023-08-30T01:20:37;8.63;;;3.95;;
76423;SDS011;65257;52.104;4.268;2023-08-30T01:26:12;9.32;;;3.75;;
76423;SDS011;65257;52.104;4.268;2023-08-30T01:28:40;8.98;;;3.70;;
76423;SDS011;65257;52.104;4.268;2023-08-30T01:31:09;8.90;;;3.92;;
76423;SDS011;65257;52.104;4.268;2023-08-30T01:33:37;6.95;;;3.15;;
76423;SDS011;65257;52.104;4.268;2023-08-30T01:36:03;8.43;;;3.97;;
76423;SDS011;65257;52.104;4.268;2023-08-30T01:38:30;8.13;;;3.78;;
76423;SDS011;65257;52.104;4.268;2023-08-30T01:41:00;7.68;;;4.03;;
76423;SDS011;65257;52.104;4.268;2023-08-30T01:43:27;8.48;;;4.13;;
76423;SDS011;65257;52.104;4.268;2023-08-30T01:45:56;8.35;;;3.70;;
76423;SDS011;65257;52.104;4.268;2023-08-30T01:48:26;7.75;;;3.53;;
76423;SDS011;65257;52.104;4.268;2023-08-30T01:50:53;8.50;;;4.18;;
76423;SDS011;65257;52.104;4.268;2023-08-30T01:53:23;8.68;;;3.70;;
76423;SDS011;65257;52.104;4.268;2023-08-30T01:55:50;9.50;;;3.90;;
76423;SDS011;65257;52.104;4.268;2023-08-30T01:58:16;8.05;;;4.38;;
76423;SDS011;65257;52.104;4.268;2023-08-30T02:00:41;8.43;;;4.00;;
76423;SDS011;65257;52.104;4.268;2023-08-30T02:03:13;8.93;;;4.35;;
76423;SDS011;65257;52.104;4.268;2023-08-30T02:06:48;7.65;;;3.70;;
76423;SDS011;65257;52.104;4.268;2023-08-30T02:09:28;10.20;;;4.32;;
76423;SDS011;65257;52.104;4.268;2023-08-30T02:12:00;12.57;;;5.70;;
76423;SDS011;65257;52.104;4.268;2023-08-30T02:14:50;12.73;;;6.18;;
76423;SDS011;65257;52.104;4.268;2023-08-30T02:17:16;12.80;;;5.68;;
76423;SDS011;65257;52.104;4.268;2023-08-30T02:19:43;10.63;;;5.32;;
76423;SDS011;65257;52.104;4.268;2023-08-30T02:22:12;10.70;;;5.78;;
76423;SDS011;65257;52.104;4.268;2023-08-30T02:24:37;10.45;;;4.57;;
76423;SDS011;65257;52.104;4.268;2023-08-30T02:27:07;10.95;;;5.55;;
76423;SDS011;65257;52.104;4.268;2023-08-30T02:29:35;10.48;;;5.53;;
76423;SDS011;65257;52.104;4.268;2023-08-30T02:32:09;12.75;;;5.85;;
76423;SDS011;65257;52.104;4.268;2023-08-30T02:34:34;10.85;;;5.78;;
76423;SDS011;65257;52.104;4.268;2023-08-30T02:37:19;11.30;;;6.72;;
76423;SDS011;65257;52.104;4.268;2023-08-30T02:39:47;11.23;;;6.63;;
76423;SDS011;65257;52.104;4.268;2023-08-30T02:42:15;8.82;;;5.60;;
76423;SDS011;65257;52.104;4.268;2023-08-30T02:44:41;11.25;;;6.75;;
76423;SDS011;65257;52.104;4.268;2023-08-30T02:47:07;11.63;;;5.72;;
76423;SDS011;65257;52.104;4.268;2023-08-30T02:49:35;11.43;;;6.18;;
76423;SDS011;65257;52.104;4.268;2023-08-30T02:52:00;10.88;;;5.55;;
76423;SDS011;65257;52.104;4.268;2023-08-30T02:54:26;9.93;;;5.72;;
76423;SDS011;65257;52.104;4.268;2023-08-30T02:56:51;9.70;;;5.88;;
76423;SDS011;65257;52.104;4.268;2023-08-30T02:59:16;12.45;;;5.40;;
76423;SDS011;65257;52.104;4.268;2023-08-30T03:01:48;10.52;;;6.10;;
76423;SDS011;65257;52.104;4.268;2023-08-30T03:04:13;10.43;;;5.65;;
76423;SDS011;65257;52.104;4.268;2023-08-30T03:06:42;10.32;;;6.10;;
76423;SDS011;65257;52.104;4.268;2023-08-30T03:09:07;10.30;;;5.88;;
76423;SDS011;65257;52.104;4.268;2023-08-30T03:11:35;12.88;;;6.63;;
76423;SDS011;65257;52.104;4.268;2023-08-30T03:14:01;15.48;;;6.22;;
76423;SDS011;65257;52.104;4.268;2023-08-30T03:16:32;11.52;;;5.82;;
76423;SDS011;65257;52.104;4.268;2023-08-30T03:19:01;14.93;;;7.30;;
76423;SDS011;65257;52.104;4.268;2023-08-30T03:21:27;12.48;;;6.70;;
76423;SDS011;65257;52.104;4.268;2023-08-30T03:23:56;13.90;;;6.70;;
76423;SDS011;65257;52.104;4.268;2023-08-30T03:26:21;14.90;;;6.78;;
76423;SDS011;65257;52.104;4.268;2023-08-30T03:28:46;13.05;;;6.80;;
76423;SDS011;65257;52.104;4.268;2023-08-30T03:33:52;15.77;;;6.38;;
76423;SDS011;65257;52.104;4.268;2023-08-30T03:36:18;13.05;;;6.88;;
76423;SDS011;65257;52.104;4.268;2023-08-30T03:38:55;12.77;;;6.78;;
76423;SDS011;65257;52.104;4.268;2023-08-30T03:41:22;12.10;;;6.47;;
76423;SDS011;65257;52.104;4.268;2023-08-30T03:43:50;12.07;;;6.30;;
76423;SDS011;65257;52.104;4.268;2023-08-30T03:46:15;11.70;;;6.35;;
76423;SDS011;65257;52.104;4.268;2023-08-30T03:48:41;12.02;;;6.28;;
76423;SDS011;65257;52.104;4.268;2023-08-30T03:51:06;10.90;;;6.68;;
76423;SDS011;65257;52.104;4.268;2023-08-30T03:53:32;13.10;;;7.03;;
76423;SDS011;65257;52.104;4.268;2023-08-30T03:55:57;12.32;;;7.00;;
76423;SDS011;65257;52.104;4.268;2023-08-30T03:58:27;11.95;;;6.28;;
76423;SDS011;65257;52.104;4.268;2023-08-30T04:00:52;10.23;;;6.18;;
76423;SDS011;65257;52.104;4.268;2023-08-30T04:03:17;13.80;;;7.70;;
76423;SDS011;65257;52.104;4.268;2023-08-30T04:05:47;11.48;;;7.05;;
76423;SDS011;65257;52.104;4.268;2023-08-30T04:08:22;15.43;;;7.28;;
76423;SDS011;65257;52.104;4.268;2023-08-30T04:10:47;13.20;;;7.22;;
76423;SDS011;65257;52.104;4.268;2023-08-30T04:13:14;11.43;;;6.68;;
76423;SDS011;65257;52.104;4.268;2023-08-30T04:15:40;11.45;;;6.88;;
76423;SDS011;65257;52.104;4.268;2023-08-30T04:18:09;16.02;;;7.22;;
76423;SDS011;65257;52.104;4.268;2023-08-30T04:20:34;12.88;;;6.88;;
76423;SDS011;65257;52.104;4.268;2023-08-30T04:23:00;10.13;;;6.20;;
76423;SDS011;65257;52.104;4.268;2023-08-30T04:25:33;13.85;;;6.85;;
76423;SDS011;65257;52.104;4.268;2023-08-30T04:28:08;14.98;;;7.65;;
76423;SDS011;65257;52.104;4.268;2023-08-30T04:30:35;13.25;;;6.72;;
76423;SDS011;65257;52.104;4.268;2023-08-30T04:33:06;14.73;;;6.57;;
76423;SDS011;65257;52.104;4.268;2023-08-30T04:35:31;12.93;;;7.00;;
76423;SDS011;65257;52.104;4.268;2023-08-30T04:38:00;11.50;;;6.82;;
76423;SDS011;65257;52.104;4.268;2023-08-30T04:40:26;16.45;;;7.00;;
76423;SDS011;65257;52.104;4.268;2023-08-30T04:42:52;14.70;;;7.10;;
76423;SDS011;65257;52.104;4.268;2023-08-30T04:45:17;12.70;;;7.72;;
76423;SDS011;65257;52.104;4.268;2023-08-30T04:47:43;14.07;;;8.65;;
76423;SDS011;65257;52.104;4.268;2023-08-30T04:50:10;12.95;;;7.47;;
76423;SDS011;65257;52.104;4.268;2023-08-30T04:52:36;15.10;;;8.48;;
76423;SDS011;65257;52.104;4.268;2023-08-30T04:55:04;15.13;;;9.00;;
76423;SDS011;65257;52.104;4.268;2023-08-30T04:57:32;14.75;;;7.72;;
76423;SDS011;65257;52.104;4.268;2023-08-30T04:59:57;15.43;;;8.55;;
76423;SDS011;65257;52.104;4.268;2023-08-30T05:02:25;15.18;;;8.38;;
76423;SDS011;65257;52.104;4.268;2023-08-30T05:04:51;15.57;;;7.75;;
76423;SDS011;65257;52.104;4.268;2023-08-30T05:07:27;16.88;;;7.82;;
76423;SDS011;65257;52.104;4.268;2023-08-30T05:09:52;13.93;;;8.10;;
76423;SDS011;65257;52.104;4.268;2023-08-30T05:12:18;14.10;;;8.13;;
76423;SDS011;65257;52.104;4.268;2023-08-30T05:14:43;18.92;;;9.20;;
76423;SDS011;65257;52.104;4.268;2023-08-30T05:17:09;13.40;;;7.07;;
76423;SDS011;65257;52.104;4.268;2023-08-30T05:19:35;18.17;;;7.82;;
76423;SDS011;65257;52.104;4.268;2023-08-30T05:22:00;14.30;;;8.30;;
76423;SDS011;65257;52.104;4.268;2023-08-30T05:24:25;15.73;;;8.40;;
76423;SDS011;65257;52.104;4.268;2023-08-30T05:26:51;16.73;;;8.88;;
76423;SDS011;65257;52.104;4.268;2023-08-30T05:29:17;16.85;;;8.77;;
76423;SDS011;65257;52.104;4.268;2023-08-30T05:31:49;16.90;;;8.68;;
76423;SDS011;65257;52.104;4.268;2023-08-30T05:34:14;16.40;;;8.85;;
76423;SDS011;65257;52.104;4.268;2023-08-30T05:36:41;17.35;;;9.80;;
76423;SDS011;65257;52.104;4.268;2023-08-30T05:39:06;18.20;;;10.48;;
76423;SDS011;65257;52.104;4.268;2023-08-30T05:41:36;21.48;;;10.25;;
76423;SDS011;65257;52.104;4.268;2023-08-30T05:44:04;19.55;;;10.00;;
76423;SDS011;65257;52.104;4.268;2023-08-30T05:46:30;20.92;;;11.25;;
76423;SDS011;65257;52.104;4.268;2023-08-30T05:51:28;18.17;;;10.73;;
76423;SDS011;65257;52.104;4.268;2023-08-30T05:53:55;20.80;;;11.07;;
76423;SDS011;65257;52.104;4.268;2023-08-30T05:56:21;21.13;;;11.85;;
76423;SDS011;65257;52.104;4.268;2023-08-30T05:58:49;20.58;;;11.27;;
76423;SDS011;65257;52.104;4.268;2023-08-30T06:01:17;19.60;;;10.82;;
76423;SDS011;65257;52.104;4.268;2023-08-30T06:03:46;25.95;;;11.57;;
76423;SDS011;65257;52.104;4.268;2023-08-30T06:06:12;19.65;;;11.98;;
76423;SDS011;65257;52.104;4.268;2023-08-30T06:08:38;21.70;;;11.75;;
76423;SDS011;65257;52.104;4.268;2023-08-30T06:11:03;23.35;;;11.73;;
76423;SDS011;65257;52.104;4.268;2023-08-30T06:13:29;24.45;;;13.73;;
76423;SDS011;65257;52.104;4.268;2023-08-30T06:15:54;22.42;;;11.60;;
76423;SDS011;65257;52.104;4.268;2023-08-30T06:18:29;23.33;;;13.25;;
76423;SDS011;65257;52.104;4.268;2023-08-30T06:20:57;23.98;;;12.20;;
76423;SDS011;65257;52.104;4.268;2023-08-30T06:23:29;23.50;;;12.48;;
76423;SDS011;65257;52.104;4.268;2023-08-30T06:25:58;18.67;;;10.88;;
76423;SDS011;65257;52.104;4.268;2023-08-30T06:28:26;22.33;;;11.90;;
76423;SDS011;65257;52.104;4.268;2023-08-30T06:30:55;21.65;;;12.27;;
76423;SDS011;65257;52.104;4.268;2023-08-30T06:33:22;23.60;;;12.05;;
76423;SDS011;65257;52.104;4.268;2023-08-30T06:35:49;21.63;;;13.05;;
76423;SDS011;65257;52.104;4.268;2023-08-30T06:38:21;22.15;;;13.48;;
76423;SDS011;65257;52.104;4.268;2023-08-30T06:40:48;22.42;;;12.57;;
76423;SDS011;65257;52.104;4.268;2023-08-30T06:43:14;19.25;;;11.05;;
76423;SDS011;65257;52.104;4.268;2023-08-30T06:45:40;23.25;;;11.00;;
76423;SDS011;65257;52.104;4.268;2023-08-30T06:48:07;22.63;;;11.93;;
76423;SDS011;65257;52.104;4.268;2023-08-30T06:50:41;19.60;;;11.18;;
76423;SDS011;65257;52.104;4.268;2023-08-30T06:53:07;14.55;;;7.72;;
76423;SDS011;65257;52.104;4.268;2023-08-30T06:55:34;12.98;;;7.28;;
76423;SDS011;65257;52.104;4.268;2023-08-30T06:58:01;13.30;;;7.22;;
76423;SDS011;65257;52.104;4.268;2023-08-30T07:00:26;11.25;;;6.68;;
76423;SDS011;65257;52.104;4.268;2023-08-30T07:02:51;12.32;;;7.15;;
76423;SDS011;65257;52.104;4.268;2023-08-30T07:05:17;11.00;;;7.18;;
76423;SDS011;65257;52.104;4.268;2023-08-30T07:07:43;12.00;;;6.15;;
76423;SDS011;65257;52.104;4.268;2023-08-30T07:10:08;9.00;;;5.82;;
76423;SDS011;65257;52.104;4.268;2023-08-30T07:12:34;8.88;;;5.30;;
76423;SDS011;65257;52.104;4.268;2023-08-30T07:14:59;8.63;;;5.13;;
76423;SDS011;65257;52.104;4.268;2023-08-30T07:17:24;9.23;;;4.88;;
76423;SDS011;65257;52.104;4.268;2023-08-30T07:19:50;9.35;;;5.68;;
76423;SDS011;65257;52.104;4.268;2023-08-30T07:22:16;9.85;;;5.95;;
76423;SDS011;65257;52.104;4.268;2023-08-30T07:24:51;10.88;;;6.30;;
76423;SDS011;65257;52.104;4.268;2023-08-30T07:27:20;9.63;;;6.53;;
76423;SDS011;65257;52.104;4.268;2023-08-30T07:29:46;9.80;;;6.32;;
76423;SDS011;65257;52.104;4.268;2023-08-30T07:32:11;9.82;;;5.40;;
76423;SDS011;65257;52.104;4.268;2023-08-30T07:34:39;10.13;;;7.47;;
76423;SDS011;65257;52.104;4.268;2023-08-30T07:37:05;10.13;;;7.03;;
76423;SDS011;65257;52.104;4.268;2023-08-30T07:39:30;19.05;;;11.13;;
76423;SDS011;65257;52.104;4.268;2023-08-30T07:41:55;14.43;;;9.48;;
76423;SDS011;65257;52.104;4.268;2023-08-30T07:44:21;20.25;;;11.20;;
76423;SDS011;65257;52.104;4.268;2023-08-30T07:46:49;13.80;;;8.30;;
76423;SDS011;65257;52.104;4.268;2023-08-30T07:49:18;11.57;;;7.53;;
76423;SDS011;65257;52.104;4.268;2023-08-30T07:51:43;12.90;;;8.02;;
76423;SDS011;65257;52.104;4.268;2023-08-30T07:54:09;12.20;;;8.00;;
76423;SDS011;65257;52.104;4.268;2023-08-30T07:56:35;9.77;;;6.10;;
76423;SDS011;65257;52.104;4.268;2023-08-30T07:59:00;8.38;;;2.47;;
76423;SDS011;65257;52.104;4.268;2023-08-30T08:01:26;5.22;;;1.65;;
76423;SDS011;65257;52.104;4.268;2023-08-30T08:03:51;3.58;;;1.90;;
76423;SDS011;65257;52.104;4.268;2023-08-30T08:06:17;7.82;;;2.17;;
76423;SDS011;65257;52.104;4.268;2023-08-30T08:08:43;6.13;;;2.63;;
76423;SDS011;65257;52.104;4.268;2023-08-30T08:11:12;6.00;;;2.00;;
76423;SDS011;65257;52.104;4.268;2023-08-30T08:13:38;4.47;;;2.10;;
76423;SDS011;65257;52.104;4.268;2023-08-30T08:16:04;6.15;;;2.00;;
76423;SDS011;65257;52.104;4.268;2023-08-30T08:18:41;5.57;;;2.00;;
76423;SDS011;65257;52.104;4.268;2023-08-30T08:21:06;6.20;;;2.00;;
76423;SDS011;65257;52.104;4.268;2023-08-30T08:23:35;3.83;;;1.75;;
76423;SDS011;65257;52.104;4.268;2023-08-30T08:26:01;7.82;;;2.13;;
76423;SDS011;65257;52.104;4.268;2023-08-30T08:28:27;9.73;;;2.38;;
76423;SDS011;65257;52.104;4.268;2023-08-30T08:30:53;6.15;;;2.20;;
76423;SDS011;65257;52.104;4.268;2023-08-30T08:33:18;6.22;;;2.38;;
76423;SDS011;65257;52.104;4.268;2023-08-30T08:35:50;8.07;;;2.05;;
76423;SDS011;65257;52.104;4.268;2023-08-30T08:38:16;6.43;;;2.03;;
76423;SDS011;65257;52.104;4.268;2023-08-30T08:41:02;4.50;;;2.22;;
76423;SDS011;65257;52.104;4.268;2023-08-30T08:43:35;9.15;;;2.55;;
76423;SDS011;65257;52.104;4.268;2023-08-30T08:46:02;10.48;;;2.92;;
76423;SDS011;65257;52.104;4.268;2023-08-30T08:48:36;11.05;;;2.17;;
76423;SDS011;65257;52.104;4.268;2023-08-30T08:51:06;10.05;;;2.25;;
76423;SDS011;65257;52.104;4.268;2023-08-30T08:53:32;9.05;;;2.28;;
76423;SDS011;65257;52.104;4.268;2023-08-30T08:56:00;7.90;;;2.50;;
76423;SDS011;65257;52.104;4.268;2023-08-30T08:58:27;8.27;;;2.00;;
76423;SDS011;65257;52.104;4.268;2023-08-30T09:00:53;8.80;;;1.85;;
76423;SDS011;65257;52.104;4.268;2023-08-30T09:03:19;11.00;;;2.20;;
76423;SDS011;65257;52.104;4.268;2023-08-30T09:05:46;11.07;;;2.13;;
76423;SDS011;65257;52.104;4.268;2023-08-30T09:08:13;7.07;;;2.30;;
76423;SDS011;65257;52.104;4.268;2023-08-30T09:10:41;7.78;;;1.70;;
76423;SDS011;65257;52.104;4.268;2023-08-30T09:13:09;8.02;;;2.40;;
76423;SDS011;65257;52.104;4.268;2023-08-30T09:15:37;10.45;;;2.38;;
76423;SDS011;65257;52.104;4.268;2023-08-30T09:18:04;10.23;;;2.33;;
76423;SDS011;65257;52.104;4.268;2023-08-30T09:20:42;6.22;;;1.75;;
76423;SDS011;65257;52.104;4.268;2023-08-30T09:23:18;10.85;;;2.08;;
76423;SDS011;65257;52.104;4.268;2023-08-30T09:25:45;7.93;;;2.03;;
76423;SDS011;65257;52.104;4.268;2023-08-30T09:28:20;7.13;;;1.88;;
76423;SDS011;65257;52.104;4.268;2023-08-30T09:30:49;11.25;;;2.05;;
76423;SDS011;65257;52.104;4.268;2023-08-30T09:33:16;6.15;;;1.70;;
76423;SDS011;65257;52.104;4.268;2023-08-30T09:35:55;8.18;;;1.95;;
76423;SDS011;65257;52.104;4.268;2023-08-30T09:38:20;8.60;;;2.20;;
76423;SDS011;65257;52.104;4.268;2023-08-30T09:40:46;7.03;;;2.50;;
76423;SDS011;65257;52.104;4.268;2023-08-30T09:43:12;8.85;;;2.20;;
76423;SDS011;65257;52.104;4.268;2023-08-30T09:48:15;11.13;;;2.15;;
76423;SDS011;65257;52.104;4.268;2023-08-30T09:50:44;8.13;;;2.00;;
76423;SDS011;65257;52.104;4.268;2023-08-30T09:53:15;7.65;;;1.98;;
76423;SDS011;65257;52.104;4.268;2023-08-30T09:55:42;7.68;;;1.88;;
76423;SDS011;65257;52.104;4.268;2023-08-30T09:58:16;10.98;;;2.00;;
76423;SDS011;65257;52.104;4.268;2023-08-30T10:00:42;13.68;;;2.58;;
76423;SDS011;65257;52.104;4.268;2023-08-30T10:03:09;7.78;;;2.25;;
76423;SDS011;65257;52.104;4.268;2023-08-30T10:05:37;12.02;;;2.42;;
76423;SDS011;65257;52.104;4.268;2023-08-30T10:08:06;8.52;;;2.28;;
76423;SDS011;65257;52.104;4.268;2023-08-30T10:10:33;5.82;;;1.55;;
76423;SDS011;65257;52.104;4.268;2023-08-30T10:13:00;11.43;;;1.75;;
76423;SDS011;65257;52.104;4.268;2023-08-30T10:15:26;10.80;;;1.77;;
76423;SDS011;65257;52.104;4.268;2023-08-30T10:17:55;13.10;;;1.98;;
76423;SDS011;65257;52.104;4.268;2023-08-30T10:20:31;21.05;;;2.10;;
76423;SDS011;65257;52.104;4.268;2023-08-30T10:22:56;9.18;;;1.65;;
76423;SDS011;65257;52.104;4.268;2023-08-30T10:25:27;9.88;;;1.88;;
76423;SDS011;65257;52.104;4.268;2023-08-30T10:27:56;8.07;;;1.65;;
76423;SDS011;65257;52.104;4.268;2023-08-30T10:30:22;9.90;;;1.73;;
76423;SDS011;65257;52.104;4.268;2023-08-30T10:32:51;9.55;;;2.13;;
76423;SDS011;65257;52.104;4.268;2023-08-30T10:35:18;8.10;;;1.30;;
76423;SDS011;65257;52.104;4.268;2023-08-30T10:37:57;9.05;;;1.70;;
76423;SDS011;65257;52.104;4.268;2023-08-30T10:40:25;11.88;;;1.50;;
76423;SDS011;65257;52.104;4.268;2023-08-30T10:43:04;9.02;;;1.88;;
76423;SDS011;65257;52.104;4.268;2023-08-30T10:45:31;11.40;;;2.10;;
76423;SDS011;65257;52.104;4.268;2023-08-30T10:47:57;6.47;;;1.50;;
76423;SDS011;65257;52.104;4.268;2023-08-30T10:50:32;5.78;;;1.55;;
76423;SDS011;65257;52.104;4.268;2023-08-30T10:52:59;5.70;;;1.58;;
76423;SDS011;65257;52.104;4.268;2023-08-30T10:55:25;6.53;;;1.48;;
76423;SDS011;65257;52.104;4.268;2023-08-30T10:58:01;8.38;;;2.00;;
76423;SDS011;65257;52.104;4.268;2023-08-30T11:00:28;8.68;;;1.63;;
76423;SDS011;65257;52.104;4.268;2023-08-30T11:02:55;6.05;;;1.45;;
76423;SDS011;65257;52.104;4.268;2023-08-30T11:05:21;9.15;;;1.85;;
76423;SDS011;65257;52.104;4.268;2023-08-30T11:07:48;8.48;;;1.67;;
76423;SDS011;65257;52.104;4.268;2023-08-30T11:10:15;5.43;;;1.33;;
76423;SDS011;65257;52.104;4.268;2023-08-30T11:12:43;11.73;;;1.65;;
76423;SDS011;65257;52.104;4.268;2023-08-30T11:15:11;5.72;;;1.77;;
76423;SDS011;65257;52.104;4.268;2023-08-30T11:17:46;11.75;;;1.95;;
76423;SDS011;65257;52.104;4.268;2023-08-30T11:20:12;9.77;;;1.92;;
76423;SDS011;65257;52.104;4.268;2023-08-30T11:22:45;16.02;;;2.83;;
76423;SDS011;65257;52.104;4.268;2023-08-30T11:25:12;11.93;;;2.83;;
76423;SDS011;65257;52.104;4.268;2023-08-30T11:27:41;25.73;;;3.28;;
76423;SDS011;65257;52.104;4.268;2023-08-30T11:30:07;17.02;;;2.78;;
76423;SDS011;65257;52.104;4.268;2023-08-30T11:32:35;18.85;;;3.35;;
76423;SDS011;65257;52.104;4.268;2023-08-30T11:35:04;16.95;;;3.08;;
76423;SDS011;65257;52.104;4.268;2023-08-30T11:37:30;12.45;;;2.60;;
76423;SDS011;65257;52.104;4.268;2023-08-30T11:39:56;11.45;;;2.53;;
76423;SDS011;65257;52.104;4.268;2023-08-30T11:42:26;9.43;;;2.78;;
76423;SDS011;65257;52.104;4.268;2023-08-30T11:44:51;9.57;;;2.13;;
76423;SDS011;65257;52.104;4.268;2023-08-30T11:47:24;6.68;;;1.80;;
76423;SDS011;65257;52.104;4.268;2023-08-30T11:49:57;8.50;;;1.60;;
76423;SDS011;65257;52.104;4.268;2023-08-30T11:52:27;8.82;;;2.20;;
76423;SDS011;65257;52.104;4.268;2023-08-30T11:55:00;9.75;;;1.85;;
76423;SDS011;65257;52.104;4.268;2023-08-30T11:57:28;8.63;;;1.80;;
76423;SDS011;65257;52.104;4.268;2023-08-30T12:02:37;7.10;;;1.80;;
76423;SDS011;65257;52.104;4.268;2023-08-30T12:05:04;17.52;;;3.30;;
76423;SDS011;65257;52.104;4.268;2023-08-30T12:07:30;12.75;;;2.42;;
76423;SDS011;65257;52.104;4.268;2023-08-30T12:12:50;11.70;;;2.53;;
76423;SDS011;65257;52.104;4.268;2023-08-30T12:15:19;8.63;;;2.65;;
76423;SDS011;65257;52.104;4.268;2023-08-30T12:18:05;7.90;;;2.20;;
76423;SDS011;65257;52.104;4.268;2023-08-30T12:20:31;5.60;;;1.77;;
76423;SDS011;65257;52.104;4.268;2023-08-30T12:22:56;8.52;;;1.88;;
76423;SDS011;65257;52.104;4.268;2023-08-30T12:25:23;9.55;;;2.20;;
76423;SDS011;65257;52.104;4.268;2023-08-30T12:27:49;8.90;;;1.85;;
76423;SDS011;65257;52.104;4.268;2023-08-30T12:30:15;13.02;;;2.20;;
76423;SDS011;65257;52.104;4.268;2023-08-30T12:32:43;11.20;;;2.20;;
76423;SDS011;65257;52.104;4.268;2023-08-30T12:35:09;4.85;;;1.75;;
76423;SDS011;65257;52.104;4.268;2023-08-30T12:37:38;8.10;;;2.35;;
76423;SDS011;65257;52.104;4.268;2023-08-30T12:40:25;5.20;;;1.80;;
76423;SDS011;65257;52.104;4.268;2023-08-30T12:42:58;10.32;;;2.20;;
76423;SDS011;65257;52.104;4.268;2023-08-30T12:45:23;10.85;;;2.00;;
76423;SDS011;65257;52.104;4.268;2023-08-30T12:47:51;7.32;;;1.85;;
76423;SDS011;65257;52.104;4.268;2023-08-30T12:50:17;7.80;;;1.35;;
76423;SDS011;65257;52.104;4.268;2023-08-30T12:52:45;8.82;;;1.50;;
76423;SDS011;65257;52.104;4.268;2023-08-30T12:55:10;7.25;;;1.77;;
76423;SDS011;65257;52.104;4.268;2023-08-30T12:57:36;9.85;;;2.05;;
76423;SDS011;65257;52.104;4.268;2023-08-30T13:00:02;6.00;;;1.63;;
76423;SDS011;65257;52.104;4.268;2023-08-30T13:02:28;5.43;;;1.50;;
76423;SDS011;65257;52.104;4.268;2023-08-30T13:04:53;8.90;;;1.60;;
76423;SDS011;65257;52.104;4.268;2023-08-30T13:07:18;13.10;;;2.20;;
76423;SDS011;65257;52.104;4.268;2023-08-30T13:09:44;9.45;;;1.92;;
76423;SDS011;65257;52.104;4.268;2023-08-30T13:12:12;8.07;;;2.10;;
76423;SDS011;65257;52.104;4.268;2023-08-30T13:14:41;8.23;;;1.48;;
76423;SDS011;65257;52.104;4.268;2023-08-30T13:17:06;4.63;;;1.70;;
76423;SDS011;65257;52.104;4.268;2023-08-30T13:19:31;11.68;;;2.05;;
76423;SDS011;65257;52.104;4.268;2023-08-30T13:21:57;10.40;;;1.98;;
76423;SDS011;65257;52.104;4.268;2023-08-30T13:26:57;11.48;;;1.35;;
76423;SDS011;65257;52.104;4.268;2023-08-30T13:29:23;6.35;;;1.58;;
76423;SDS011;65257;52.104;4.268;2023-08-30T13:31:48;18.90;;;2.95;;
76423;SDS011;65257;52.104;4.268;2023-08-30T13:34:14;11.30;;;2.40;;
76423;SDS011;65257;52.104;4.268;2023-08-30T13:36:39;16.58;;;2.17;;
76423;SDS011;65257;52.104;4.268;2023-08-30T13:39:05;8.18;;;1.90;;
76423;SDS011;65257;52.104;4.268;2023-08-30T13:41:30;9.90;;;2.67;;
76423;SDS011;65257;52.104;4.268;2023-08-30T13:43:55;10.00;;;2.10;;
76423;SDS011;65257;52.104;4.268;2023-08-30T13:46:21;5.35;;;1.95;;
76423;SDS011;65257;52.104;4.268;2023-08-30T13:48:46;9.40;;;2.13;;
76423;SDS011;65257;52.104;4.268;2023-08-30T13:51:12;8.00;;;1.85;;
76423;SDS011;65257;52.104;4.268;2023-08-30T13:53:41;7.40;;;1.38;;
76423;SDS011;65257;52.104;4.268;2023-08-30T13:56:07;8.07;;;1.60;;
76423;SDS011;65257;52.104;4.268;2023-08-30T13:58:33;7.97;;;1.70;;
76423;SDS011;65257;52.104;4.268;2023-08-30T14:00:58;4.82;;;1.48;;
76423;SDS011;65257;52.104;4.268;2023-08-30T14:03:24;5.13;;;1.63;;
76423;SDS011;65257;52.104;4.268;2023-08-30T14:05:49;8.20;;;1.83;;
76423;SDS011;65257;52.104;4.268;2023-08-30T14:08:14;12.93;;;2.45;;
76423;SDS011;65257;52.104;4.268;2023-08-30T14:10:43;7.82;;;1.80;;
76423;SDS011;65257;52.104;4.268;2023-08-30T14:13:11;8.73;;;2.08;;
76423;SDS011;65257;52.104;4.268;2023-08-30T14:15:37;8.23;;;2.03;;
76423;SDS011;65257;52.104;4.268;2023-08-30T14:18:02;8.85;;;2.13;;
76423;SDS011;65257;52.104;4.268;2023-08-30T14:20:31;10.95;;;2.60;;
76423;SDS011;65257;52.104;4.268;2023-08-30T14:23:02;8.27;;;2.33;;
76423;SDS011;65257;52.104;4.268;2023-08-30T14:25:28;4.05;;;1.70;;
76423;SDS011;65257;52.104;4.268;2023-08-30T14:27:54;7.60;;;2.22;;
76423;SDS011;65257;52.104;4.268;2023-08-30T14:30:20;11.35;;;2.20;;
76423;SDS011;65257;52.104;4.268;2023-08-30T14:32:46;9.98;;;2.17;;
76423;SDS011;65257;52.104;4.268;2023-08-30T14:35:11;7.15;;;1.95;;
76423;SDS011;65257;52.104;4.268;2023-08-30T14:37:37;8.68;;;2.80;;
76423;SDS011;65257;52.104;4.268;2023-08-30T14:40:04;7.22;;;1.95;;
76423;SDS011;65257;52.104;4.268;2023-08-30T14:42:35;7.05;;;2.22;;
76423;SDS011;65257;52.104;4.268;2023-08-30T14:45:00;8.38;;;2.10;;
76423;SDS011;65257;52.104;4.268;2023-08-30T14:47:35;9.25;;;1.60;;
76423;SDS011;65257;52.104;4.268;2023-08-30T14:50:00;6.13;;;1.40;;
76423;SDS011;65257;52.104;4.268;2023-08-30T14:52:36;8.77;;;1.60;;
76423;SDS011;65257;52.104;4.268;2023-08-30T14:55:01;12.05;;;2.58;;
76423;SDS011;65257;52.104;4.268;2023-08-30T14:57:27;6.28;;;1.58;;
76423;SDS011;65257;52.104;4.268;2023-08-30T14:59:52;6.47;;;1.85;;
76423;SDS011;65257;52.104;4.268;2023-08-30T15:02:18;6.93;;;1.38;;
76423;SDS011;65257;52.104;4.268;2023-08-30T15:04:53;22.42;;;3.28;;